Time;durP1;ratioP1;P1;durP2;ratioP2;P2;SDS_P1;SDS_P2;PMS_P1;PMS_P2;Temp;Humidity;BMP_temperature;BMP_pressure;BME280_temperature;BME280_humidity;BME280_pressure;Samples;Min_cycle;Max_cycle;Signal;HPM_P1;HPM_P2
2022/01/17 00:02:40;;;;;;;23.40;13.30;;;;;;;2.24;67.97;99180.29;221246;1276;139628;-61
2022/01/17 00:07:44;;;;;;;22.00;12.90;;;;;;;2.21;68.14;99166.91;221319;1277;139703;-60
2022/01/17 00:12:50;;;;;;;19.80;12.80;;;;;;;2.18;68.44;99158.23;221324;1276;141067;-61
2022/01/17 00:18:20;;;;;;;23.50;13.60;;;;;;;2.21;68.47;99158.50;221338;1276;139261;-61
2022/01/17 00:23:17;;;;;;;21.20;11.70;;;;;;;2.22;68.66;99162.33;221255;1275;139779;-61
2022/01/17 00:28:20;;;;;;;20.40;12.00;;;;;;;2.22;68.74;99159.52;221360;1277;139987;-62
2022/01/17 00:33:23;;;;;;;19.00;12.20;;;;;;;2.24;68.87;99155.64;221267;1276;138774;-62
2022/01/17 00:38:26;;;;;;;18.60;11.40;;;;;;;2.24;69.03;99143.02;221007;1276;138704;-60
2022/01/17 00:43:29;;;;;;;19.30;12.20;;;;;;;2.25;68.99;99142.63;221137;1276;140623;-60
2022/01/17 00:48:32;;;;;;;17.20;11.90;;;;;;;2.24;69.19;99144.42;221315;1277;139527;-59
2022/01/17 00:53:37;;;;;;;19.10;12.20;;;;;;;2.22;69.35;99147.95;221367;1276;139440;-61
2022/01/17 00:58:40;;;;;;;17.10;11.30;;;;;;;2.21;69.51;99139.93;221076;1275;139414;-61
2022/01/17 01:03:44;;;;;;;17.60;12.10;;;;;;;2.20;69.49;99133.68;221078;1276;139733;-61
2022/01/17 01:08:46;;;;;;;16.10;11.30;;;;;;;2.20;69.63;99120.03;221137;1276;138556;-59
2022/01/17 01:13:50;;;;;;;17.10;11.30;;;;;;;2.18;69.81;99124.63;221117;1276;139156;-61
2022/01/17 01:29:18;;;;;;;14.50;10.80;;;;;;;2.30;70.16;99100.66;221262;1274;139737;-61
2022/01/17 01:34:31;;;;;;;14.40;10.10;;;;;;;2.36;70.14;99094.55;221235;1275;138930;-60
2022/01/17 01:39:35;;;;;;;13.20;9.20;;;;;;;2.37;70.00;99093.83;221279;1276;139943;-60
2022/01/17 01:44:38;;;;;;;14.90;9.90;;;;;;;2.44;70.15;99090.13;221166;1276;139442;-62
2022/01/17 01:49:41;;;;;;;14.60;9.90;;;;;;;2.52;70.33;99073.95;221280;1276;138785;-61
2022/01/17 01:54:44;;;;;;;13.10;9.40;;;;;;;2.55;70.09;99068.27;221306;1276;139752;-60
2022/01/17 01:59:47;;;;;;;13.20;9.70;;;;;;;2.57;70.14;99052.11;221454;1276;142167;-61
2022/01/17 02:04:50;;;;;;;13.60;9.30;;;;;;;2.60;70.14;99037.64;221250;1276;139838;-61
2022/01/17 02:09:53;;;;;;;13.10;8.70;;;;;;;2.63;70.09;99023.19;221246;1276;139664;-60
2022/01/17 02:14:56;;;;;;;12.80;8.40;;;;;;;2.65;70.17;99023.84;220933;1276;139136;-61
2022/01/17 02:20:08;;;;;;;14.40;9.90;;;;;;;2.63;70.10;99011.98;221353;1276;138366;-58
2022/01/17 02:25:11;;;;;;;12.00;8.10;;;;;;;2.65;70.11;99005.30;221167;1276;139695;-57
2022/01/17 02:30:17;;;;;;;12.90;8.30;;;;;;;2.67;70.13;98995.73;221248;1274;139052;-60
2022/01/17 02:35:22;;;;;;;13.40;9.30;;;;;;;2.70;70.09;98979.02;221336;1276;139504;-62
2022/01/17 02:40:26;;;;;;;14.00;8.30;;;;;;;2.71;70.14;98968.65;221348;1276;138732;-60
2022/01/17 02:45:34;;;;;;;13.40;8.50;;;;;;;2.73;70.02;98968.08;221300;1276;139343;-60
2022/01/17 02:50:39;;;;;;;14.30;9.80;;;;;;;2.76;69.95;98963.77;221147;1276;139593;-61
2022/01/17 02:56:01;;;;;;;15.00;9.70;;;;;;;2.78;70.09;98949.35;221137;1276;138553;-58
2022/01/17 03:01:08;;;;;;;12.90;8.60;;;;;;;2.81;69.93;98940.30;220855;1276;139243;-60
2022/01/17 03:06:13;;;;;;;9.80;6.70;;;;;;;2.82;69.99;98942.91;221237;1276;143450;-60
2022/01/17 03:11:19;;;;;;;11.20;7.60;;;;;;;2.85;69.88;98944.40;221106;1276;139909;-59
2022/01/17 03:16:29;;;;;;;11.70;8.50;;;;;;;2.88;69.84;98948.13;220810;1277;138957;-60
2022/01/17 03:21:32;;;;;;;12.30;8.00;;;;;;;2.92;69.87;98952.77;220937;1277;139305;-60
2022/01/17 03:26:36;;;;;;;12.60;8.10;;;;;;;2.91;69.51;98944.02;221320;1276;139508;-60
2022/01/17 03:31:39;;;;;;;9.60;6.80;;;;;;;2.94;69.61;98934.29;221331;1276;139798;-60
2022/01/17 03:36:44;;;;;;;10.50;6.60;;;;;;;2.99;69.54;98923.09;221255;1276;139696;-60
2022/01/17 03:41:47;;;;;;;10.90;6.10;;;;;;;3.03;69.57;98909.82;221518;1277;139481;-60
2022/01/17 03:46:50;;;;;;;7.90;6.00;;;;;;;3.03;69.39;98907.86;221250;1276;138906;-59
2022/01/17 03:51:53;;;;;;;9.50;6.60;;;;;;;3.02;69.43;98897.91;221177;1274;138835;-61
2022/01/17 03:56:56;;;;;;;12.80;7.00;;;;;;;3.05;69.46;98903.23;221306;1276;139316;-60
2022/01/17 04:01:59;;;;;;;11.00;7.80;;;;;;;3.11;69.55;98897.44;221317;1277;140054;-59
2022/01/17 04:07:03;;;;;;;10.40;7.40;;;;;;;3.08;69.47;98883.84;221158;1276;287065;-58
2022/01/17 04:12:06;;;;;;;14.10;7.30;;;;;;;3.09;69.61;98884.70;221203;1276;140372;-59
2022/01/17 04:17:09;;;;;;;11.50;7.80;;;;;;;3.08;69.63;98887.35;221186;1276;139271;-60
2022/01/17 04:22:12;;;;;;;9.50;7.00;;;;;;;3.05;69.79;98886.23;221156;1277;139362;-60
2022/01/17 04:27:15;;;;;;;11.40;7.80;;;;;;;3.04;69.71;98885.76;220953;1277;139393;-60
2022/01/17 04:32:18;;;;;;;11.60;8.00;;;;;;;3.02;69.83;98889.14;221026;1276;139176;-59
2022/01/17 04:37:22;;;;;;;10.80;7.00;;;;;;;3.04;70.06;98896.98;221148;1276;139588;-59
2022/01/17 04:42:28;;;;;;;11.60;8.20;;;;;;;3.06;69.98;98891.11;221350;1276;139122;-60
2022/01/17 04:47:31;;;;;;;12.30;8.50;;;;;;;3.05;69.97;98891.48;221422;1276;138754;-59
2022/01/17 04:52:35;;;;;;;11.20;8.80;;;;;;;3.00;70.10;98881.51;221124;1276;139019;-59
2022/01/17 04:57:39;;;;;;;12.50;8.30;;;;;;;2.99;70.21;98884.69;220884;1277;139243;-59
2022/01/17 05:02:42;;;;;;;13.00;9.50;;;;;;;2.98;70.28;98872.63;221413;1276;139361;-60
2022/01/17 05:07:45;;;;;;;12.70;9.00;;;;;;;3.00;70.31;98857.33;221309;1276;139956;-60
2022/01/17 05:12:49;;;;;;;15.50;8.80;;;;;;;3.02;70.27;98853.56;221404;1276;140611;-60
2022/01/17 05:23:24;;;;;;;14.10;9.20;;;;;;;3.10;70.16;98821.23;220803;1276;138872;-59
2022/01/17 05:28:27;;;;;;;13.70;8.60;;;;;;;3.12;70.26;98807.85;221338;1276;139084;-60
2022/01/17 05:33:31;;;;;;;14.40;9.60;;;;;;;3.14;70.09;98796.71;221198;1275;141755;-60
2022/01/17 05:38:34;;;;;;;14.70;10.00;;;;;;;3.21;70.16;98795.23;221298;1276;139370;-60
2022/01/17 05:43:37;;;;;;;13.60;9.10;;;;;;;3.29;70.07;98789.35;221402;1276;139584;-59
2022/01/17 05:48:43;;;;;;;15.80;10.00;;;;;;;3.30;70.04;98780.54;221247;1276;139807;-58
2022/01/17 05:53:46;;;;;;;13.20;8.40;;;;;;;3.31;69.97;98777.71;221199;1276;139894;-59
2022/01/17 05:58:49;;;;;;;13.00;9.40;;;;;;;3.37;69.83;98769.79;221203;1276;139734;-60
2022/01/17 06:03:52;;;;;;;16.20;10.00;;;;;;;3.40;69.70;98753.18;221308;1276;139057;-59
2022/01/17 06:08:55;;;;;;;14.70;9.40;;;;;;;3.41;69.60;98745.40;221167;1277;141877;-60
2022/01/17 06:13:59;;;;;;;12.20;8.20;;;;;;;3.45;69.81;98750.70;221252;1276;139999;-59
2022/01/17 06:19:03;;;;;;;13.70;9.60;;;;;;;3.46;69.69;98745.41;221131;1276;139243;-61
2022/01/17 06:24:09;;;;;;;14.90;9.10;;;;;;;3.49;69.45;98754.06;221500;1276;140127;-59
2022/01/17 06:29:13;;;;;;;12.80;8.80;;;;;;;3.55;69.54;98735.23;221356;1277;138892;-60
2022/01/17 06:34:16;;;;;;;14.50;9.40;;;;;;;3.60;69.37;98717.35;221201;1276;139978;-58
2022/01/17 06:39:19;;;;;;;12.60;8.30;;;;;;;3.63;69.44;98698.98;221253;1275;138873;-61
2022/01/17 06:44:22;;;;;;;13.00;8.00;;;;;;;3.70;69.37;98683.27;221362;1277;139361;-60
2022/01/17 06:49:25;;;;;;;12.40;8.10;;;;;;;3.74;69.04;98697.48;221367;1276;139278;-60
2022/01/17 06:54:28;;;;;;;14.10;7.80;;;;;;;3.74;69.13;98685.39;221143;1276;139137;-60
2022/01/17 06:59:31;;;;;;;13.10;8.30;;;;;;;3.71;69.11;98674.29;221351;1276;138695;-58
2022/01/17 07:04:34;;;;;;;12.70;7.70;;;;;;;3.68;68.73;98639.81;221399;1276;139416;-59
2022/01/17 07:09:37;;;;;;;12.50;7.70;;;;;;;3.70;68.75;98622.20;221464;1274;139842;-60
2022/01/17 07:14:42;;;;;;;13.10;8.50;;;;;;;3.71;68.88;98617.63;221224;1275;138844;-58
2022/01/17 07:19:45;;;;;;;13.50;8.60;;;;;;;3.68;69.13;98640.36;221171;1276;138880;-59
2022/01/17 07:24:48;;;;;;;14.00;8.20;;;;;;;3.67;69.15;98671.10;220992;1276;140642;-58
2022/01/17 07:29:52;;;;;;;12.20;7.90;;;;;;;3.67;69.29;98694.94;221442;1276;139409;-60
2022/01/17 07:34:54;;;;;;;11.60;8.00;;;;;;;3.62;69.20;98707.80;221384;1276;139479;-60
2022/01/17 07:39:58;;;;;;;10.60;6.90;;;;;;;3.54;69.35;98666.69;221345;1276;138830;-59
2022/01/17 07:45:09;;;;;;;11.20;6.30;;;;;;;3.43;69.87;98621.92;221319;1276;142218;-59
2022/01/17 07:50:16;;;;;;;11.70;7.20;;;;;;;3.44;69.96;98599.05;221274;1276;140427;-60
2022/01/17 07:55:20;;;;;;;12.90;6.80;;;;;;;3.32;69.98;98576.55;221282;1276;139953;-61
2022/01/17 08:00:25;;;;;;;12.70;7.20;;;;;;;3.27;70.03;98575.55;221311;1276;139865;-60
2022/01/17 08:05:28;;;;;;;10.20;7.10;;;;;;;3.21;70.51;98537.04;221345;1276;138952;-60
2022/01/17 08:10:32;;;;;;;9.50;6.20;;;;;;;3.13;70.68;98524.77;221372;1276;139854;-57
2022/01/17 08:15:37;;;;;;;12.20;7.60;;;;;;;3.12;70.85;98498.32;221016;1277;139124;-61
2022/01/17 08:20:42;;;;;;;12.70;7.70;;;;;;;3.12;71.04;98473.61;221341;1276;139261;-60
2022/01/17 08:25:45;;;;;;;12.90;8.20;;;;;;;3.12;71.06;98471.70;221338;1276;139404;-60
2022/01/17 08:30:48;;;;;;;14.10;8.30;;;;;;;3.17;71.32;98484.82;221312;1276;139657;-60
2022/01/17 08:36:12;;;;;;;13.10;9.10;;;;;;;3.22;71.55;98494.75;221275;1276;139166;-60
2022/01/17 08:41:22;;;;;;;12.30;7.20;;;;;;;3.27;71.64;98468.96;220970;1277;139368;-59
2022/01/17 08:46:25;;;;;;;14.40;9.20;;;;;;;3.32;71.48;98464.53;221293;1276;140360;-61
2022/01/17 08:51:28;;;;;;;12.00;7.70;;;;;;;3.40;71.52;98441.44;221380;1277;138750;-59
2022/01/17 08:56:32;;;;;;;11.00;7.40;;;;;;;3.48;71.48;98408.64;221112;1276;139054;-59
2022/01/17 09:01:35;;;;;;;11.40;8.30;;;;;;;3.53;71.32;98401.23;221170;1277;138985;-60
2022/01/17 09:06:38;;;;;;;12.50;7.10;;;;;;;3.57;71.20;98408.06;221131;1276;139376;-59
2022/01/17 09:11:42;;;;;;;11.50;7.30;;;;;;;3.67;71.23;98379.19;221388;1276;139169;-61
2022/01/17 09:16:45;;;;;;;13.00;8.20;;;;;;;3.76;71.18;98370.38;221242;1276;138751;-61
2022/01/17 09:21:48;;;;;;;10.50;6.40;;;;;;;3.81;71.21;98364.20;221344;1276;139056;-59
2022/01/17 09:26:51;;;;;;;12.00;8.00;;;;;;;3.83;71.21;98362.69;221235;1277;138918;-60
2022/01/17 09:31:54;;;;;;;13.00;7.80;;;;;;;3.79;71.13;98372.88;221339;1276;139084;-61
2022/01/17 09:36:57;;;;;;;12.20;6.90;;;;;;;3.71;71.06;98371.31;221302;1276;139909;-61
2022/01/17 09:42:00;;;;;;;14.30;8.20;;;;;;;3.66;71.19;98339.61;221321;1277;140151;-59
2022/01/17 09:47:08;;;;;;;12.50;8.20;;;;;;;3.58;71.52;98336.81;221327;1276;139342;-59
2022/01/17 09:52:25;;;;;;;12.00;7.40;;;;;;;3.45;71.43;98324.92;221246;1276;139567;-60
2022/01/17 09:57:31;;;;;;;10.70;7.00;;;;;;;3.36;71.48;98303.98;221188;1275;139749;-61
2022/01/17 10:02:34;;;;;;;13.50;7.90;;;;;;;3.29;71.67;98300.24;221382;1277;138958;-61
2022/01/17 10:07:56;;;;;;;10.90;6.80;;;;;;;3.24;71.84;98297.83;221102;1276;139039;-60
2022/01/17 10:13:12;;;;;;;9.60;6.30;;;;;;;3.27;72.11;98297.17;221280;1276;139611;-61
2022/01/17 10:18:48;;;;;;;12.80;7.00;;;;;;;3.27;72.34;98273.33;221468;1276;139367;-60
2022/01/17 10:34:54;;;;;;;11.00;5.80;;;;;;;3.38;72.65;98251.46;221240;1276;138600;-60
2022/01/17 10:40:15;;;;;;;10.10;5.70;;;;;;;3.42;72.73;98239.17;221387;1277;139154;-60
2022/01/17 10:45:26;;;;;;;8.60;5.00;;;;;;;3.42;72.79;98235.85;221354;1276;139683;-61
2022/01/17 10:50:34;;;;;;;9.10;5.50;;;;;;;3.43;72.72;98223.17;221249;1275;139431;-61
2022/01/17 10:55:48;;;;;;;10.00;5.90;;;;;;;3.46;72.70;98225.82;221186;1276;138817;-61
2022/01/17 11:00:59;;;;;;;9.90;5.20;;;;;;;3.42;73.03;98222.88;221526;1276;139358;-60
2022/01/17 11:06:05;;;;;;;10.30;5.70;;;;;;;3.44;72.94;98207.52;221351;1276;139045;-61
2022/01/17 11:11:10;;;;;;;8.70;5.60;;;;;;;3.47;72.76;98202.30;221272;1276;139490;-61
2022/01/17 11:16:13;;;;;;;8.90;5.40;;;;;;;3.47;72.97;98207.18;221228;1276;139861;-61
2022/01/17 11:21:17;;;;;;;8.50;5.40;;;;;;;3.49;72.90;98210.42;221243;1276;140188;-61
2022/01/17 11:26:20;;;;;;;6.30;4.60;;;;;;;3.43;73.01;98213.70;221188;1276;139542;-62
2022/01/17 11:31:24;;;;;;;9.20;4.90;;;;;;;3.41;72.99;98184.33;221277;1276;139553;-60
2022/01/17 11:36:27;;;;;;;8.90;5.80;;;;;;;3.41;72.99;98180.86;221380;1276;139516;-61
2022/01/17 11:41:36;;;;;;;9.60;5.40;;;;;;;3.34;73.00;98162.42;221201;1276;139890;-60
2022/01/17 11:46:51;;;;;;;9.70;5.70;;;;;;;3.34;73.25;98155.39;221145;1276;139249;-63
2022/01/17 11:51:54;;;;;;;10.60;6.20;;;;;;;3.38;73.42;98161.55;221355;1276;139520;-59
2022/01/17 11:57:02;;;;;;;9.10;5.80;;;;;;;3.39;73.52;98160.79;221250;1276;139923;-60
2022/01/17 12:02:14;;;;;;;11.20;5.70;;;;;;;3.43;73.44;98158.63;221249;1276;140280;-60
2022/01/17 12:07:20;;;;;;;10.60;5.00;;;;;;;3.44;73.30;98166.33;221222;1276;140276;-62
2022/01/17 12:12:23;;;;;;;9.10;5.10;;;;;;;3.43;73.42;98168.29;221383;1276;140262;-63
2022/01/17 12:17:28;;;;;;;6.70;4.70;;;;;;;3.38;73.46;98183.27;221170;1276;139165;-59
2022/01/17 12:22:32;;;;;;;4.00;2.30;;;;;;;3.35;73.39;98331.71;221023;1276;140218;-63
2022/01/17 12:27:35;;;;;;;0.70;0.50;;;;;;;3.25;72.66;98427.16;221193;1276;140229;-62
2022/01/17 12:32:39;;;;;;;0.70;0.30;;;;;;;2.97;71.87;98441.11;221286;1276;139340;-63
2022/01/17 12:37:45;;;;;;;2.50;0.50;;;;;;;2.73;71.75;98452.94;221296;1276;139698;-62
2022/01/17 12:43:06;;;;;;;1.00;0.40;;;;;;;2.62;71.94;98468.11;221337;1276;139725;-62
2022/01/17 12:48:15;;;;;;;1.30;0.60;;;;;;;2.78;72.89;98471.85;221217;1276;139855;-62
2022/01/17 12:53:21;;;;;;;1.60;0.50;;;;;;;2.84;72.33;98477.55;221078;1277;138724;-62
2022/01/17 12:58:24;;;;;;;1.00;0.50;;;;;;;2.80;71.72;98473.16;221263;1276;139083;-62
2022/01/17 13:03:32;;;;;;;3.70;1.30;;;;;;;2.60;71.20;98486.73;221265;1276;139005;-60
2022/01/17 13:08:40;;;;;;;1.90;1.20;;;;;;;2.37;70.88;98475.88;221204;1276;139052;-64
2022/01/17 13:13:57;;;;;;;2.80;1.20;;;;;;;2.25;71.09;98463.54;221216;1276;139600;-61
2022/01/17 13:19:03;;;;;;;3.90;1.70;;;;;;;2.19;71.07;98487.59;221497;1276;141105;-60
2022/01/17 13:24:14;;;;;;;3.60;1.60;;;;;;;2.15;71.18;98493.85;221293;1276;139496;-59
2022/01/17 13:29:18;;;;;;;4.80;1.70;;;;;;;2.16;71.06;98496.11;221085;1276;138644;-61
2022/01/17 13:34:24;;;;;;;4.10;2.00;;;;;;;2.17;71.00;98529.13;221134;1277;139035;-60
2022/01/17 13:39:27;;;;;;;2.10;1.00;;;;;;;2.20;70.69;98556.85;221161;1276;141341;-60
2022/01/17 13:44:36;;;;;;;2.50;1.10;;;;;;;2.25;70.56;98561.56;221217;1275;139423;-60
2022/01/17 13:49:48;;;;;;;2.70;1.10;;;;;;;2.27;70.27;98571.80;220942;1276;138980;-58
2022/01/17 13:54:51;;;;;;;4.20;1.50;;;;;;;2.31;69.89;98595.30;221334;1276;139295;-62
2022/01/17 14:00:14;;;;;;;3.40;1.70;;;;;;;2.24;69.49;98639.80;221281;1276;139608;-63
2022/01/17 14:05:39;;;;;;;4.20;1.80;;;;;;;2.22;69.23;98660.73;221272;1276;138992;-60
2022/01/17 14:11:03;;;;;;;5.10;2.60;;;;;;;2.23;69.06;98674.35;221247;1275;140420;-62
2022/01/17 14:16:22;;;;;;;5.20;2.30;;;;;;;2.26;68.93;98672.30;221215;1276;141798;-64
2022/01/17 14:21:27;;;;;;;6.70;2.20;;;;;;;2.25;68.74;98669.38;221279;1276;138924;-62
2022/01/17 14:26:31;;;;;;;6.50;2.60;;;;;;;2.26;68.51;98665.47;221209;1276;138217;-62
2022/01/17 14:31:35;;;;;;;5.00;2.40;;;;;;;2.26;68.21;98679.65;221221;1276;139073;-60
2022/01/17 14:36:40;;;;;;;6.90;2.80;;;;;;;2.20;67.85;98701.39;221275;1276;138751;-60
2022/01/17 14:41:46;;;;;;;7.50;3.00;;;;;;;2.18;67.81;98736.81;221338;1275;139877;-61
2022/01/17 14:46:59;;;;;;;9.60;3.30;;;;;;;2.17;67.70;98745.25;221199;1277;139176;-62
2022/01/17 14:52:10;;;;;;;6.10;2.80;;;;;;;2.14;67.46;98757.94;221194;1276;139223;-61
2022/01/17 15:02:57;;;;;;;4.90;2.50;;;;;;;2.03;67.18;98790.47;221242;1277;140229;-61
2022/01/17 15:08:02;;;;;;;7.50;3.00;;;;;;;2.01;67.07;98813.98;221593;1276;139841;-61
2022/01/17 15:13:07;;;;;;;8.10;3.30;;;;;;;1.96;66.96;98823.24;221420;1276;138512;-61
2022/01/17 15:18:14;;;;;;;8.80;3.10;;;;;;;1.96;66.94;98842.84;221236;1276;140037;-61
2022/01/17 15:23:21;;;;;;;9.20;4.30;;;;;;;1.95;66.80;98860.71;220685;1276;139567;-59
2022/01/17 15:28:24;;;;;;;8.60;3.20;;;;;;;1.91;66.76;98875.71;221075;1276;139169;-62
2022/01/17 15:33:27;;;;;;;9.80;3.60;;;;;;;1.90;66.77;98900.05;221271;1276;138808;-61
2022/01/17 15:38:31;;;;;;;9.30;3.00;;;;;;;1.84;66.85;98911.92;221271;1274;139217;-59
2022/01/17 15:43:34;;;;;;;12.10;4.10;;;;;;;1.77;66.93;98919.84;221259;1274;139035;-59
2022/01/17 15:48:38;;;;;;;11.10;4.40;;;;;;;1.70;67.14;98922.84;221415;1275;139563;-64
2022/01/17 15:53:41;;;;;;;11.00;4.70;;;;;;;1.65;67.18;98925.92;221260;1275;139292;-60
2022/01/17 15:58:45;;;;;;;10.70;4.60;;;;;;;1.63;67.29;98928.08;221097;1275;139238;-62
2022/01/17 16:03:48;;;;;;;11.70;5.40;;;;;;;1.61;67.30;98944.76;221362;1275;139487;-62
2022/01/17 16:08:55;;;;;;;11.10;5.90;;;;;;;1.55;67.39;98942.30;221198;1276;228389;-60
2022/01/17 16:13:59;;;;;;;14.20;6.80;;;;;;;1.49;67.46;98954.70;221197;1275;140452;-61
2022/01/17 16:19:04;;;;;;;14.60;6.60;;;;;;;1.47;67.78;98964.70;221555;1275;140751;-60
2022/01/17 16:24:08;;;;;;;12.80;6.40;;;;;;;1.44;67.86;98975.10;221303;1276;138795;-62
2022/01/17 16:29:11;;;;;;;12.70;6.00;;;;;;;1.43;67.80;98987.88;221189;1276;139573;-62
2022/01/17 16:34:14;;;;;;;14.30;6.30;;;;;;;1.40;68.04;98993.55;221134;1276;138694;-60
2022/01/17 16:39:18;;;;;;;14.50;6.50;;;;;;;1.41;67.98;99000.70;221336;1275;139606;-61
2022/01/17 16:44:21;;;;;;;11.50;6.00;;;;;;;1.43;67.99;99014.81;221377;1276;139562;-61
2022/01/17 16:49:24;;;;;;;13.60;6.20;;;;;;;1.51;68.34;99031.05;221365;1276;141575;-60
2022/01/17 16:54:27;;;;;;;17.40;6.90;;;;;;;1.60;68.54;99041.11;221306;1277;139191;-60
2022/01/17 16:59:30;;;;;;;16.60;6.90;;;;;;;1.71;68.78;99058.52;221282;1275;141786;-60
2022/01/17 17:04:34;;;;;;;16.20;6.80;;;;;;;1.74;68.83;99079.95;221183;1276;138822;-59
2022/01/17 17:09:37;;;;;;;13.90;6.60;;;;;;;1.75;69.24;99094.45;221251;1276;139983;-61
2022/01/17 17:14:40;;;;;;;16.50;7.30;;;;;;;1.72;69.26;99093.96;220974;1276;139690;-60
2022/01/17 17:19:43;;;;;;;18.80;7.90;;;;;;;1.75;69.47;99110.19;220749;1276;233844;-58
2022/01/17 17:24:53;;;;;;;16.10;6.50;;;;;;;1.74;69.48;99124.36;221270;1275;139050;-60
2022/01/17 17:29:58;;;;;;;13.90;5.00;;;;;;;1.78;69.39;99141.24;220984;1276;139685;-60
2022/01/17 17:35:01;;;;;;;5.70;2.50;;;;;;;1.81;69.13;99147.26;221214;1275;139339;-63
2022/01/17 17:40:06;;;;;;;9.10;3.60;;;;;;;1.88;68.98;99149.38;221192;1275;139266;-61
2022/01/17 17:45:10;;;;;;;8.10;2.80;;;;;;;1.93;68.63;99160.27;221146;1275;138798;-62
2022/01/17 17:50:14;;;;;;;9.70;3.30;;;;;;;1.94;68.26;99173.35;221074;1276;139176;-63
2022/01/17 17:55:24;;;;;;;9.80;3.00;;;;;;;1.95;68.08;99191.02;221197;1276;139204;-61
2022/01/17 18:00:27;;;;;;;9.30;3.60;;;;;;;1.98;67.87;99217.36;221481;1276;139473;-59
2022/01/17 18:05:30;;;;;;;9.20;2.90;;;;;;;1.94;67.63;99231.27;221182;1275;139284;-60
2022/01/17 18:10:33;;;;;;;10.00;4.00;;;;;;;1.90;67.52;99246.75;221138;1275;139431;-59
2022/01/17 18:15:36;;;;;;;11.20;4.10;;;;;;;1.89;67.59;99249.56;221154;1275;140793;-60
2022/01/17 18:20:40;;;;;;;10.90;3.70;;;;;;;1.93;67.52;99266.45;220997;1276;139015;-60
2022/01/17 18:25:43;;;;;;;8.90;3.90;;;;;;;1.93;67.22;99276.08;220682;1274;139799;-58
2022/01/17 18:30:48;;;;;;;10.20;4.20;;;;;;;1.92;67.31;99290.96;221431;1276;140483;-59
2022/01/17 18:35:53;;;;;;;9.80;4.50;;;;;;;1.89;67.03;99302.05;221286;1275;139033;-61
2022/01/17 18:40:59;;;;;;;9.70;3.80;;;;;;;1.88;66.98;99316.96;221362;1275;139162;-60
2022/01/17 18:46:03;;;;;;;15.10;5.10;;;;;;;1.90;66.88;99327.59;221256;1275;138796;-61
2022/01/17 18:51:06;;;;;;;11.20;5.10;;;;;;;1.91;66.85;99332.80;221388;1276;152868;-59
2022/01/17 18:56:09;;;;;;;14.50;5.00;;;;;;;1.95;66.89;99344.97;221368;1276;139231;-59
2022/01/17 19:01:14;;;;;;;13.30;5.10;;;;;;;1.96;66.69;99355.98;221482;1275;139180;-57
2022/01/17 19:06:17;;;;;;;16.20;4.60;;;;;;;1.95;66.66;99359.66;221194;1275;139435;-61
2022/01/17 19:11:20;;;;;;;18.50;5.40;;;;;;;1.93;66.55;99372.30;221405;1275;139667;-60
2022/01/17 19:16:23;;;;;;;14.00;5.90;;;;;;;1.90;66.33;99383.75;221378;1275;139884;-61
2022/01/17 19:26:46;;;;;;;12.90;5.40;;;;;;;1.85;66.35;99406.58;221184;1275;139348;-59
2022/01/17 19:31:50;;;;;;;17.20;6.60;;;;;;;1.86;66.34;99419.70;221169;1274;139340;-60
2022/01/17 19:36:53;;;;;;;13.00;5.90;;;;;;;1.85;66.18;99427.73;221178;1276;138853;-59
2022/01/17 19:41:56;;;;;;;14.30;5.10;;;;;;;1.84;66.16;99440.55;221320;1276;139718;-58
2022/01/17 19:47:03;;;;;;;16.10;6.20;;;;;;;1.81;66.08;99455.12;221384;1276;139310;-59
2022/01/17 19:52:06;;;;;;;19.50;6.70;;;;;;;1.78;65.93;99468.48;221362;1276;139830;-60
2022/01/17 19:57:10;;;;;;;17.20;7.00;;;;;;;1.70;65.79;99469.17;221188;1276;139336;-62
2022/01/17 20:02:14;;;;;;;21.90;7.40;;;;;;;1.64;65.91;99475.04;221370;1277;140538;-60
2022/01/17 20:07:18;;;;;;;13.50;5.70;;;;;;;1.61;65.77;99485.94;221313;1274;138794;-60
2022/01/17 20:12:21;;;;;;;16.00;5.80;;;;;;;1.59;65.74;99503.46;221054;1276;140391;-61
2022/01/17 20:17:24;;;;;;;16.30;6.20;;;;;;;1.60;65.72;99524.95;221372;1276;139503;-60
2022/01/17 20:22:28;;;;;;;14.00;6.10;;;;;;;1.60;65.56;99548.55;221401;1276;138651;-60
2022/01/17 20:27:31;;;;;;;14.40;5.50;;;;;;;1.62;65.51;99564.44;221305;1276;139986;-60
2022/01/17 20:32:34;;;;;;;22.90;5.90;;;;;;;1.62;65.37;99587.17;221266;1276;139428;-62
2022/01/17 20:37:38;;;;;;;14.10;5.20;;;;;;;1.57;65.32;99610.34;221347;1274;138744;-63
2022/01/17 20:42:42;;;;;;;15.60;5.60;;;;;;;1.55;65.26;99626.81;221277;1276;139269;-63
2022/01/17 20:47:45;;;;;;;17.90;5.20;;;;;;;1.53;65.16;99634.37;221324;1275;139252;-59
2022/01/17 20:52:49;;;;;;;16.70;5.80;;;;;;;1.48;65.13;99642.65;221423;1274;139128;-61
2022/01/17 20:57:52;;;;;;;15.20;5.70;;;;;;;1.44;65.01;99647.80;221051;1277;140183;-60
2022/01/17 21:02:55;;;;;;;15.90;5.60;;;;;;;1.44;65.32;99658.64;221207;1276;139219;-60
2022/01/17 21:07:59;;;;;;;18.30;6.20;;;;;;;1.46;65.28;99675.02;221145;1276;139240;-61
2022/01/17 21:13:03;;;;;;;18.70;6.30;;;;;;;1.50;65.32;99680.58;221439;1275;139942;-61
2022/01/17 21:18:07;;;;;;;18.70;6.70;;;;;;;1.48;65.21;99683.91;221169;1277;141221;-61
2022/01/17 21:23:10;;;;;;;17.80;6.40;;;;;;;1.47;65.19;99688.50;220471;1276;139720;-61
2022/01/17 21:28:13;;;;;;;20.70;5.60;;;;;;;1.43;65.06;99695.70;221219;1276;138738;-62
2022/01/17 21:33:17;;;;;;;18.50;6.20;;;;;;;1.38;64.89;99701.89;221459;1276;139261;-59
2022/01/17 21:38:20;;;;;;;20.10;6.70;;;;;;;1.32;64.91;99708.45;221184;1276;140481;-61
2022/01/17 21:43:23;;;;;;;18.00;6.80;;;;;;;1.23;64.81;99722.89;221421;1276;138778;-60
2022/01/17 21:48:27;;;;;;;16.10;6.40;;;;;;;1.16;64.73;99730.15;221245;1276;139815;-59
2022/01/17 21:53:30;;;;;;;18.20;6.40;;;;;;;1.13;64.81;99729.84;221274;1276;139167;-60
2022/01/17 21:58:33;;;;;;;21.20;7.10;;;;;;;1.11;64.76;99738.44;221277;1275;140872;-60
2022/01/17 22:03:36;;;;;;;21.10;7.40;;;;;;;1.09;64.75;99742.65;221265;1277;139321;-61
2022/01/17 22:08:39;;;;;;;18.90;8.20;;;;;;;1.06;64.73;99757.90;221304;1277;139338;-61
2022/01/17 22:13:42;;;;;;;20.00;8.40;;;;;;;1.01;64.80;99773.49;221171;1276;138586;-60
2022/01/17 22:18:45;;;;;;;19.80;7.80;;;;;;;0.97;64.79;99781.22;221265;1277;140703;-58
2022/01/17 22:23:49;;;;;;;23.30;8.00;;;;;;;0.90;64.89;99790.73;221364;1276;138923;-61
2022/01/17 22:28:52;;;;;;;22.40;8.20;;;;;;;0.80;64.76;99800.45;220946;1277;139601;-59
2022/01/17 22:33:55;;;;;;;20.80;7.90;;;;;;;0.73;65.01;99808.04;221365;1276;139180;-62
2022/01/17 22:39:04;;;;;;;22.20;7.50;;;;;;;0.70;65.17;99811.20;221192;1276;139769;-60
2022/01/17 22:44:09;;;;;;;24.10;8.40;;;;;;;0.74;65.16;99815.36;220606;1276;140209;-61
2022/01/17 22:49:13;;;;;;;26.10;9.00;;;;;;;0.76;65.40;99821.80;221212;1277;139283;-58
2022/01/17 22:54:16;;;;;;;26.90;9.50;;;;;;;0.79;65.21;99836.45;221355;1277;139076;-61
2022/01/17 22:59:19;;;;;;;25.30;10.30;;;;;;;0.75;65.33;99846.61;221227;1277;138790;-59
2022/01/17 23:04:22;;;;;;;32.50;12.00;;;;;;;0.64;65.27;99855.09;221266;1277;138767;-61
2022/01/17 23:09:25;;;;;;;29.40;12.30;;;;;;;0.54;65.28;99864.42;221206;1276;139147;-60
2022/01/17 23:14:28;;;;;;;27.70;10.70;;;;;;;0.47;65.52;99862.91;220947;1277;139148;-57
2022/01/17 23:19:46;;;;;;;29.60;11.90;;;;;;;0.41;65.37;99865.23;221223;1276;138731;-60
2022/01/17 23:24:49;;;;;;;31.60;11.10;;;;;;;0.38;65.67;99874.85;221383;1275;140010;-57
2022/01/17 23:29:59;;;;;;;32.00;11.40;;;;;;;0.41;65.92;99879.54;221366;1276;140328;-60
2022/01/17 23:35:03;;;;;;;34.10;13.20;;;;;;;0.42;65.90;99894.36;221344;1277;140623;-59
2022/01/17 23:40:09;;;;;;;34.70;11.90;;;;;;;0.41;65.97;99904.85;221334;1276;140959;-60
2022/01/17 23:45:12;;;;;;;35.70;13.10;;;;;;;0.35;66.03;99913.08;221376;1277;139748;-60
2022/01/17 23:50:15;;;;;;;29.60;11.70;;;;;;;0.29;66.16;99922.73;221385;1276;140152;-60
2022/01/17 23:55:26;;;;;;;25.00;9.80;;;;;;;0.27;66.31;99926.75;221377;1277;140396;-60
